sensor_id;sensor_type;location;lat;lon;timestamp;pressure;altitude;pressure_sealevel;temperature;humidity
9969;BME280;5025;48.890;9.278;2023-02-15T00:01:09;100168.00;;;2.32;69.08
9969;BME280;5025;48.890;9.278;2023-02-15T00:03:35;100165.50;;;2.31;69.06
9969;BME280;5025;48.890;9.278;2023-02-15T00:06:01;100168.16;;;2.31;68.89
9969;BME280;5025;48.890;9.278;2023-02-15T00:08:26;100163.25;;;2.26;68.90
9969;BME280;5025;48.890;9.278;2023-02-15T00:10:51;100167.03;;;2.24;69.04
9969;BME280;5025;48.890;9.278;2023-02-15T00:13:16;100168.13;;;2.21;69.20
9969;BME280;5025;48.890;9.278;2023-02-15T00:15:42;100165.47;;;2.21;69.06
9969;BME280;5025;48.890;9.278;2023-02-15T00:18:07;100152.28;;;2.20;69.08
9969;BME280;5025;48.890;9.278;2023-02-15T00:20:32;100153.44;;;2.17;69.09
9969;BME280;5025;48.890;9.278;2023-02-15T00:22:58;100147.22;;;2.17;69.22
9969;BME280;5025;48.890;9.278;2023-02-15T00:25:23;100149.34;;;2.13;69.02
9969;BME280;5025;48.890;9.278;2023-02-15T00:27:49;100149.63;;;2.10;69.56
9969;BME280;5025;48.890;9.278;2023-02-15T00:30:14;100148.94;;;2.08;69.44
9969;BME280;5025;48.890;9.278;2023-02-15T00:32:40;100152.28;;;2.10;69.37
9969;BME280;5025;48.890;9.278;2023-02-15T00:35:05;100145.13;;;2.10;69.43
9969;BME280;5025;48.890;9.278;2023-02-15T00:37:31;100146.81;;;2.11;69.17
9969;BME280;5025;48.890;9.278;2023-02-15T00:39:57;100148.81;;;2.09;69.30
9969;BME280;5025;48.890;9.278;2023-02-15T00:42:22;100137.56;;;2.06;69.33
9969;BME280;5025;48.890;9.278;2023-02-15T00:44:47;100143.63;;;2.08;69.51
9969;BME280;5025;48.890;9.278;2023-02-15T00:47:13;100143.75;;;2.06;69.48
9969;BME280;5025;48.890;9.278;2023-02-15T00:49:38;100136.88;;;2.04;69.63
9969;BME280;5025;48.890;9.278;2023-02-15T00:52:03;100143.31;;;2.01;69.69
9969;BME280;5025;48.890;9.278;2023-02-15T00:54:28;100140.50;;;2.03;69.61
9969;BME280;5025;48.890;9.278;2023-02-15T00:56:54;100136.59;;;1.97;69.56
9969;BME280;5025;48.890;9.278;2023-02-15T00:59:19;100145.84;;;1.93;69.81
9969;BME280;5025;48.890;9.278;2023-02-15T01:01:44;100143.72;;;1.87;69.65
9969;BME280;5025;48.890;9.278;2023-02-15T01:04:10;100144.50;;;1.58;69.82
9969;BME280;5025;48.890;9.278;2023-02-15T01:06:35;100148.41;;;1.44;70.21
9969;BME280;5025;48.890;9.278;2023-02-15T01:09:01;100143.81;;;1.46;70.18
9969;BME280;5025;48.890;9.278;2023-02-15T01:11:26;100143.66;;;1.48;70.23
9969;BME280;5025;48.890;9.278;2023-02-15T01:13:57;100141.84;;;1.48;69.80
9969;BME280;5025;48.890;9.278;2023-02-15T01:16:24;100145.47;;;1.47;69.98
9969;BME280;5025;48.890;9.278;2023-02-15T01:18:50;100142.13;;;1.45;69.93
9969;BME280;5025;48.890;9.278;2023-02-15T01:21:18;100142.66;;;1.49;69.87
9969;BME280;5025;48.890;9.278;2023-02-15T01:23:44;100136.66;;;1.47;69.67
9969;BME280;5025;48.890;9.278;2023-02-15T01:26:10;100143.53;;;1.49;69.85
9969;BME280;5025;48.890;9.278;2023-02-15T01:28:38;100143.53;;;1.49;69.87
9969;BME280;5025;48.890;9.278;2023-02-15T01:31:12;100141.69;;;1.50;70.01
9969;BME280;5025;48.890;9.278;2023-02-15T01:33:37;100138.47;;;1.46;69.80
9969;BME280;5025;48.890;9.278;2023-02-15T01:36:03;100151.66;;;1.48;69.72
9969;BME280;5025;48.890;9.278;2023-02-15T01:38:29;100143.22;;;1.42;69.93
9969;BME280;5025;48.890;9.278;2023-02-15T01:40:54;100144.47;;;1.38;69.98
9969;BME280;5025;48.890;9.278;2023-02-15T01:43:45;100149.94;;;1.37;69.83
9969;BME280;5025;48.890;9.278;2023-02-15T01:46:12;100136.03;;;1.23;70.17
9969;BME280;5025;48.890;9.278;2023-02-15T01:48:45;100141.47;;;1.22;70.21
9969;BME280;5025;48.890;9.278;2023-02-15T01:51:12;100139.81;;;1.21;70.06
9969;BME280;5025;48.890;9.278;2023-02-15T01:53:42;100138.97;;;1.20;70.01
9969;BME280;5025;48.890;9.278;2023-02-15T01:56:19;100142.34;;;1.22;70.13
9969;BME280;5025;48.890;9.278;2023-02-15T01:58:47;100137.16;;;1.21;70.00
9969;BME280;5025;48.890;9.278;2023-02-15T02:01:14;100130.13;;;1.20;69.99
9969;BME280;5025;48.890;9.278;2023-02-15T02:04:00;100129.59;;;1.16;70.15
9969;BME280;5025;48.890;9.278;2023-02-15T02:06:27;100120.31;;;1.11;70.31
9969;BME280;5025;48.890;9.278;2023-02-15T02:08:54;100121.69;;;1.05;70.27
9969;BME280;5025;48.890;9.278;2023-02-15T02:11:20;100120.97;;;1.03;70.15
9969;BME280;5025;48.890;9.278;2023-02-15T02:13:46;100121.50;;;0.97;70.20
9969;BME280;5025;48.890;9.278;2023-02-15T02:24:38;100114.88;;;0.81;70.26
9969;BME280;5025;48.890;9.278;2023-02-15T02:35:26;100120.53;;;0.67;70.39
9969;BME280;5025;48.890;9.278;2023-02-15T02:38:10;100127.16;;;0.51;70.20
9969;BME280;5025;48.890;9.278;2023-02-15T02:41:00;100121.69;;;0.11;71.00
9969;BME280;5025;48.890;9.278;2023-02-15T02:43:44;100126.63;;;0.15;71.43
9969;BME280;5025;48.890;9.278;2023-02-15T02:46:20;100126.97;;;0.22;71.28
9969;BME280;5025;48.890;9.278;2023-02-15T02:48:49;100125.97;;;0.23;71.33
9969;BME280;5025;48.890;9.278;2023-02-15T02:51:15;100125.72;;;0.26;71.20
9969;BME280;5025;48.890;9.278;2023-02-15T02:53:47;100121.72;;;0.32;71.41
9969;BME280;5025;48.890;9.278;2023-02-15T02:56:29;100123.16;;;0.36;71.05
9969;BME280;5025;48.890;9.278;2023-02-15T02:59:20;100120.50;;;0.36;71.26
9969;BME280;5025;48.890;9.278;2023-02-15T03:01:52;100124.69;;;0.39;71.42
9969;BME280;5025;48.890;9.278;2023-02-15T03:04:24;100113.22;;;0.38;71.59
9969;BME280;5025;48.890;9.278;2023-02-15T03:06:59;100102.59;;;0.38;71.59
9969;BME280;5025;48.890;9.278;2023-02-15T03:09:33;100097.53;;;0.35;71.72
9969;BME280;5025;48.890;9.278;2023-02-15T03:12:07;100102.16;;;0.33;71.72
9969;BME280;5025;48.890;9.278;2023-02-15T03:14:33;100098.78;;;0.31;71.99
9969;BME280;5025;48.890;9.278;2023-02-15T03:17:00;100105.53;;;0.35;71.96
9969;BME280;5025;48.890;9.278;2023-02-15T03:19:30;100103.81;;;0.34;72.12
9969;BME280;5025;48.890;9.278;2023-02-15T03:22:04;100097.09;;;0.30;72.12
9969;BME280;5025;48.890;9.278;2023-02-15T03:24:48;100099.03;;;0.28;72.36
9969;BME280;5025;48.890;9.278;2023-02-15T03:27:19;100102.41;;;0.30;72.27
9969;BME280;5025;48.890;9.278;2023-02-15T03:29:49;100092.06;;;0.27;72.43
9969;BME280;5025;48.890;9.278;2023-02-15T03:32:17;100102.94;;;0.24;72.40
9969;BME280;5025;48.890;9.278;2023-02-15T03:34:43;100100.66;;;0.19;72.46
9969;BME280;5025;48.890;9.278;2023-02-15T03:37:13;100095.22;;;0.21;72.62
9969;BME280;5025;48.890;9.278;2023-02-15T03:42:25;100101.06;;;0.14;72.40
9969;BME280;5025;48.890;9.278;2023-02-15T03:45:00;100100.56;;;0.09;72.88
9969;BME280;5025;48.890;9.278;2023-02-15T03:47:36;100107.97;;;0.06;72.79
9969;BME280;5025;48.890;9.278;2023-02-15T03:50:06;100105.44;;;0.04;72.94
9969;BME280;5025;48.890;9.278;2023-02-15T03:52:54;100107.25;;;0.04;73.24
9969;BME280;5025;48.890;9.278;2023-02-15T03:55:21;100111.47;;;0.06;72.92
9969;BME280;5025;48.890;9.278;2023-02-15T03:57:46;100108.09;;;0.04;73.08
9969;BME280;5025;48.890;9.278;2023-02-15T04:00:33;100116.31;;;0.01;72.97
9969;BME280;5025;48.890;9.278;2023-02-15T04:03:31;100115.03;;;-0.05;73.49
9969;BME280;5025;48.890;9.278;2023-02-15T04:06:01;100113.22;;;-0.04;73.53
9969;BME280;5025;48.890;9.278;2023-02-15T04:08:27;100115.63;;;-0.01;73.60
9969;BME280;5025;48.890;9.278;2023-02-15T04:11:11;100104.63;;;0.04;73.63
9969;BME280;5025;48.890;9.278;2023-02-15T04:13:36;100110.44;;;-0.03;73.58
9969;BME280;5025;48.890;9.278;2023-02-15T04:16:02;100116.00;;;-0.06;73.75
9969;BME280;5025;48.890;9.278;2023-02-15T04:21:14;100114.91;;;-0.03;74.10
9969;BME280;5025;48.890;9.278;2023-02-15T04:23:58;100111.53;;;-0.05;74.06
9969;BME280;5025;48.890;9.278;2023-02-15T04:26:42;100101.91;;;-0.06;74.03
9969;BME280;5025;48.890;9.278;2023-02-15T04:29:07;100104.53;;;-0.06;74.16
9969;BME280;5025;48.890;9.278;2023-02-15T04:31:32;100101.63;;;-0.03;74.21
9969;BME280;5025;48.890;9.278;2023-02-15T04:33:58;100103.56;;;-0.05;74.13
9969;BME280;5025;48.890;9.278;2023-02-15T04:36:23;100098.84;;;-0.02;74.14
9969;BME280;5025;48.890;9.278;2023-02-15T04:38:48;100098.56;;;0.02;74.13
9969;BME280;5025;48.890;9.278;2023-02-15T04:41:13;100094.00;;;0.04;74.36
9969;BME280;5025;48.890;9.278;2023-02-15T04:43:39;100097.59;;;0.03;74.31
9969;BME280;5025;48.890;9.278;2023-02-15T04:46:04;100094.94;;;0.03;74.29
9969;BME280;5025;48.890;9.278;2023-02-15T04:48:29;100089.63;;;0.03;74.29
9969;BME280;5025;48.890;9.278;2023-02-15T04:50:55;100095.53;;;0.06;74.34
9969;BME280;5025;48.890;9.278;2023-02-15T04:53:20;100088.53;;;0.05;74.35
9969;BME280;5025;48.890;9.278;2023-02-15T04:55:45;100081.66;;;0.03;74.52
9969;BME280;5025;48.890;9.278;2023-02-15T04:58:11;100084.59;;;-0.01;74.65
9969;BME280;5025;48.890;9.278;2023-02-15T05:00:36;100082.06;;;-0.02;74.30
9969;BME280;5025;48.890;9.278;2023-02-15T05:03:01;100084.97;;;-0.05;74.65
9969;BME280;5025;48.890;9.278;2023-02-15T05:05:26;100073.78;;;-0.09;74.55
9969;BME280;5025;48.890;9.278;2023-02-15T05:07:52;100081.72;;;-0.09;74.55
9969;BME280;5025;48.890;9.278;2023-02-15T05:10:19;100082.81;;;-0.11;74.47
9969;BME280;5025;48.890;9.278;2023-02-15T05:12:45;100077.78;;;-0.14;74.64
9969;BME280;5025;48.890;9.278;2023-02-15T05:15:10;100083.22;;;-0.16;74.70
9969;BME280;5025;48.890;9.278;2023-02-15T05:17:36;100085.03;;;-0.16;74.98
9969;BME280;5025;48.890;9.278;2023-02-15T05:20:01;100084.31;;;-0.19;75.03
9969;BME280;5025;48.890;9.278;2023-02-15T05:22:27;100093.94;;;-0.17;75.01
9969;BME280;5025;48.890;9.278;2023-02-15T05:24:52;100084.72;;;-0.23;74.77
9969;BME280;5025;48.890;9.278;2023-02-15T05:27:35;100093.75;;;-0.26;74.99
9969;BME280;5025;48.890;9.278;2023-02-15T05:30:19;100083.50;;;-0.30;74.82
9969;BME280;5025;48.890;9.278;2023-02-15T05:32:45;100083.91;;;-0.35;74.89
9969;BME280;5025;48.890;9.278;2023-02-15T05:35:14;100079.78;;;-0.39;74.87
9969;BME280;5025;48.890;9.278;2023-02-15T05:37:40;100088.50;;;-0.37;75.07
9969;BME280;5025;48.890;9.278;2023-02-15T05:40:06;100095.34;;;-0.34;75.08
9969;BME280;5025;48.890;9.278;2023-02-15T05:42:31;100083.91;;;-0.35;75.02
9969;BME280;5025;48.890;9.278;2023-02-15T05:44:59;100090.16;;;-0.36;75.01
9969;BME280;5025;48.890;9.278;2023-02-15T05:47:24;100086.69;;;-0.37;75.12
9969;BME280;5025;48.890;9.278;2023-02-15T05:49:50;100083.19;;;-0.37;74.83
9969;BME280;5025;48.890;9.278;2023-02-15T05:52:15;100087.25;;;-0.33;75.21
9969;BME280;5025;48.890;9.278;2023-02-15T05:54:40;100087.38;;;-0.34;74.92
9969;BME280;5025;48.890;9.278;2023-02-15T05:57:05;100084.84;;;-0.36;74.76
9969;BME280;5025;48.890;9.278;2023-02-15T05:59:31;100073.66;;;-0.40;74.68
9969;BME280;5025;48.890;9.278;2023-02-15T06:01:56;100078.00;;;-0.39;74.94
9969;BME280;5025;48.890;9.278;2023-02-15T06:04:21;100074.50;;;-0.39;75.15
9969;BME280;5025;48.890;9.278;2023-02-15T06:06:47;100089.47;;;-0.38;74.84
9969;BME280;5025;48.890;9.278;2023-02-15T06:09:12;100094.06;;;-0.40;75.13
9969;BME280;5025;48.890;9.278;2023-02-15T06:11:38;100094.56;;;-0.46;75.18
9969;BME280;5025;48.890;9.278;2023-02-15T06:14:03;100094.44;;;-0.45;75.27
9969;BME280;5025;48.890;9.278;2023-02-15T06:16:29;100092.88;;;-0.47;75.07
9969;BME280;5025;48.890;9.278;2023-02-15T06:18:54;100090.09;;;-0.46;75.10
9969;BME280;5025;48.890;9.278;2023-02-15T06:21:19;100089.25;;;-0.46;74.81
9969;BME280;5025;48.890;9.278;2023-02-15T06:23:45;100091.78;;;-0.45;75.14
9969;BME280;5025;48.890;9.278;2023-02-15T06:26:10;100103.34;;;-0.46;74.99
9969;BME280;5025;48.890;9.278;2023-02-15T06:28:35;100099.38;;;-0.51;75.01
9969;BME280;5025;48.890;9.278;2023-02-15T06:31:02;100113.50;;;-0.51;75.37
9969;BME280;5025;48.890;9.278;2023-02-15T06:33:27;100106.50;;;-0.52;75.25
9969;BME280;5025;48.890;9.278;2023-02-15T06:35:55;100112.06;;;-0.55;75.24
9969;BME280;5025;48.890;9.278;2023-02-15T06:38:20;100107.00;;;-0.58;75.14
9969;BME280;5025;48.890;9.278;2023-02-15T06:40:46;100113.38;;;-0.61;75.30
9969;BME280;5025;48.890;9.278;2023-02-15T06:43:11;100121.59;;;-0.64;75.35
9969;BME280;5025;48.890;9.278;2023-02-15T06:45:36;100117.88;;;-0.61;75.53
9969;BME280;5025;48.890;9.278;2023-02-15T06:48:02;100126.91;;;-0.64;75.25
9969;BME280;5025;48.890;9.278;2023-02-15T06:50:27;100129.56;;;-0.64;75.45
9969;BME280;5025;48.890;9.278;2023-02-15T06:52:57;100130.41;;;-0.63;75.25
9969;BME280;5025;48.890;9.278;2023-02-15T06:55:22;100129.81;;;-0.67;75.23
9969;BME280;5025;48.890;9.278;2023-02-15T06:57:47;100122.09;;;-0.70;75.25
9969;BME280;5025;48.890;9.278;2023-02-15T07:00:13;100124.97;;;-0.73;75.18
9969;BME280;5025;48.890;9.278;2023-02-15T07:02:39;100116.31;;;-0.75;75.37
9969;BME280;5025;48.890;9.278;2023-02-15T07:05:04;100120.53;;;-0.73;75.13
9969;BME280;5025;48.890;9.278;2023-02-15T07:07:30;100116.19;;;-0.74;75.41
9969;BME280;5025;48.890;9.278;2023-02-15T07:09:55;100120.41;;;-0.71;75.32
9969;BME280;5025;48.890;9.278;2023-02-15T07:12:20;100128.25;;;-0.69;75.37
9969;BME280;5025;48.890;9.278;2023-02-15T07:15:04;100133.69;;;-0.71;75.23
9969;BME280;5025;48.890;9.278;2023-02-15T07:17:31;100135.34;;;-0.70;75.33
9969;BME280;5025;48.890;9.278;2023-02-15T07:19:57;100139.81;;;-0.70;75.37
9969;BME280;5025;48.890;9.278;2023-02-15T07:22:22;100136.22;;;-0.69;75.26
9969;BME280;5025;48.890;9.278;2023-02-15T07:24:47;100142.59;;;-0.72;75.03
9969;BME280;5025;48.890;9.278;2023-02-15T07:27:14;100137.28;;;-0.72;75.05
9969;BME280;5025;48.890;9.278;2023-02-15T07:29:39;100139.00;;;-0.71;75.28
9969;BME280;5025;48.890;9.278;2023-02-15T07:32:04;100148.59;;;-0.70;75.18
9969;BME280;5025;48.890;9.278;2023-02-15T07:34:30;100136.22;;;-0.69;75.00
9969;BME280;5025;48.890;9.278;2023-02-15T07:36:55;100131.50;;;-0.66;75.26
9969;BME280;5025;48.890;9.278;2023-02-15T07:39:20;100140.28;;;-0.65;74.91
9969;BME280;5025;48.890;9.278;2023-02-15T07:41:46;100136.81;;;-0.66;74.95
9969;BME280;5025;48.890;9.278;2023-02-15T07:44:12;100127.88;;;-0.65;75.17
9969;BME280;5025;48.890;9.278;2023-02-15T07:46:38;100125.81;;;-0.61;75.04
9969;BME280;5025;48.890;9.278;2023-02-15T07:49:03;100121.59;;;-0.64;75.27
9969;BME280;5025;48.890;9.278;2023-02-15T07:51:29;100127.63;;;-0.62;75.32
9969;BME280;5025;48.890;9.278;2023-02-15T07:53:54;100119.69;;;-0.62;75.41
9969;BME280;5025;48.890;9.278;2023-02-15T07:56:20;100129.31;;;-0.61;75.48
9969;BME280;5025;48.890;9.278;2023-02-15T07:58:45;100118.69;;;-0.61;75.53
9969;BME280;5025;48.890;9.278;2023-02-15T08:01:18;100117.16;;;-0.63;75.29
9969;BME280;5025;48.890;9.278;2023-02-15T08:03:44;100111.72;;;-0.62;75.14
9969;BME280;5025;48.890;9.278;2023-02-15T08:06:10;100119.31;;;-0.57;75.29
9969;BME280;5025;48.890;9.278;2023-02-15T08:08:38;100113.13;;;-0.58;75.39
9969;BME280;5025;48.890;9.278;2023-02-15T08:11:14;100124.00;;;-0.49;75.26
9969;BME280;5025;48.890;9.278;2023-02-15T08:14:11;100123.88;;;-0.48;75.44
9969;BME280;5025;48.890;9.278;2023-02-15T08:19:21;100137.00;;;-0.46;75.40
9969;BME280;5025;48.890;9.278;2023-02-15T08:21:48;100133.38;;;-0.45;75.10
9969;BME280;5025;48.890;9.278;2023-02-15T08:24:16;100143.03;;;-0.44;75.53
9969;BME280;5025;48.890;9.278;2023-02-15T08:26:42;100132.88;;;-0.39;75.43
9969;BME280;5025;48.890;9.278;2023-02-15T08:29:10;100133.63;;;-0.37;75.36
9969;BME280;5025;48.890;9.278;2023-02-15T08:31:35;100128.19;;;-0.35;75.45
9969;BME280;5025;48.890;9.278;2023-02-15T08:34:02;100126.22;;;-0.33;75.49
9969;BME280;5025;48.890;9.278;2023-02-15T08:36:29;100127.94;;;-0.32;75.55
9969;BME280;5025;48.890;9.278;2023-02-15T08:39:01;100123.19;;;-0.29;75.67
9969;BME280;5025;48.890;9.278;2023-02-15T08:41:32;100129.09;;;-0.25;75.66
9969;BME280;5025;48.890;9.278;2023-02-15T08:44:00;100131.38;;;-0.21;75.65
9969;BME280;5025;48.890;9.278;2023-02-15T08:46:28;100132.94;;;-0.18;75.60
9969;BME280;5025;48.890;9.278;2023-02-15T08:48:54;100134.25;;;-0.12;75.50
9969;BME280;5025;48.890;9.278;2023-02-15T08:51:25;100134.72;;;-0.07;75.72
9969;BME280;5025;48.890;9.278;2023-02-15T08:53:53;100137.00;;;-0.03;75.76
9969;BME280;5025;48.890;9.278;2023-02-15T08:56:21;100135.03;;;-0.01;75.32
9969;BME280;5025;48.890;9.278;2023-02-15T08:58:46;100127.66;;;0.03;75.63
9969;BME280;5025;48.890;9.278;2023-02-15T09:01:14;100125.72;;;0.05;75.66
9969;BME280;5025;48.890;9.278;2023-02-15T09:03:43;100116.78;;;0.06;75.83
9969;BME280;5025;48.890;9.278;2023-02-15T09:06:08;100117.75;;;0.05;75.80
9969;BME280;5025;48.890;9.278;2023-02-15T09:08:34;100118.47;;;0.07;75.88
9969;BME280;5025;48.890;9.278;2023-02-15T09:11:16;100111.06;;;0.11;76.10
9969;BME280;5025;48.890;9.278;2023-02-15T09:13:48;100103.47;;;0.17;75.90
9969;BME280;5025;48.890;9.278;2023-02-15T09:16:14;100104.03;;;0.21;76.00
9969;BME280;5025;48.890;9.278;2023-02-15T09:18:41;100102.34;;;0.20;76.09
9969;BME280;5025;48.890;9.278;2023-02-15T09:21:10;100097.75;;;0.22;76.01
9969;BME280;5025;48.890;9.278;2023-02-15T09:23:36;100107.78;;;0.18;76.23
9969;BME280;5025;48.890;9.278;2023-02-15T09:26:03;100104.84;;;0.22;76.56
9969;BME280;5025;48.890;9.278;2023-02-15T09:28:29;100099.03;;;0.28;76.34
9969;BME280;5025;48.890;9.278;2023-02-15T09:30:54;100097.28;;;0.38;76.42
9969;BME280;5025;48.890;9.278;2023-02-15T09:33:20;100098.72;;;0.42;76.43
9969;BME280;5025;48.890;9.278;2023-02-15T09:35:47;100091.06;;;0.49;76.20
9969;BME280;5025;48.890;9.278;2023-02-15T09:38:12;100082.13;;;0.50;76.21
9969;BME280;5025;48.890;9.278;2023-02-15T09:40:48;100081.13;;;0.51;76.21
9969;BME280;5025;48.890;9.278;2023-02-15T09:43:30;100082.44;;;0.57;76.24
9969;BME280;5025;48.890;9.278;2023-02-15T09:48:41;100078.81;;;0.58;76.47
9969;BME280;5025;48.890;9.278;2023-02-15T09:54:05;100075.69;;;0.52;76.49
9969;BME280;5025;48.890;9.278;2023-02-15T09:56:44;100074.69;;;0.23;76.99
9969;BME280;5025;48.890;9.278;2023-02-15T10:02:33;100077.59;;;0.20;78.67
9969;BME280;5025;48.890;9.278;2023-02-15T10:13:39;100063.38;;;0.51;77.73
9969;BME280;5025;48.890;9.278;2023-02-15T10:16:31;100063.44;;;0.40;78.12
9969;BME280;5025;48.890;9.278;2023-02-15T10:19:28;100064.22;;;0.31;79.08
9969;BME280;5025;48.890;9.278;2023-02-15T10:27:40;100059.78;;;0.31;80.65
9969;BME280;5025;48.890;9.278;2023-02-15T10:30:11;100054.84;;;0.27;80.92
9969;BME280;5025;48.890;9.278;2023-02-15T10:33:00;100061.06;;;0.37;81.08
9969;BME280;5025;48.890;9.278;2023-02-15T10:38:40;100048.41;;;0.50;80.89
9969;BME280;5025;48.890;9.278;2023-02-15T10:41:43;100048.00;;;0.55;81.38
9969;BME280;5025;48.890;9.278;2023-02-15T10:44:38;100042.06;;;0.73;81.21
9969;BME280;5025;48.890;9.278;2023-02-15T10:50:19;100042.88;;;1.14;80.85
9969;BME280;5025;48.890;9.278;2023-02-15T10:53:14;100034.78;;;1.35;80.59
9969;BME280;5025;48.890;9.278;2023-02-15T10:55:52;100019.81;;;1.53;80.35
9969;BME280;5025;48.890;9.278;2023-02-15T11:01:22;100022.06;;;1.77;80.73
9969;BME280;5025;48.890;9.278;2023-02-15T11:06:22;100009.38;;;2.19;80.29
9969;BME280;5025;48.890;9.278;2023-02-15T11:08:54;100015.63;;;2.37;80.44
9969;BME280;5025;48.890;9.278;2023-02-15T11:11:24;100009.56;;;2.45;80.28
9969;BME280;5025;48.890;9.278;2023-02-15T11:14:00;99994.50;;;2.63;80.40
9969;BME280;5025;48.890;9.278;2023-02-15T11:16:32;99999.94;;;2.90;80.36
9969;BME280;5025;48.890;9.278;2023-02-15T11:19:00;99995.59;;;3.16;80.10
9969;BME280;5025;48.890;9.278;2023-02-15T11:21:37;99988.66;;;3.41;79.59
9969;BME280;5025;48.890;9.278;2023-02-15T11:24:10;99999.56;;;3.66;79.30
9969;BME280;5025;48.890;9.278;2023-02-15T11:26:49;99995.66;;;3.79;78.95
9969;BME280;5025;48.890;9.278;2023-02-15T11:29:25;99987.66;;;4.05;78.88
9969;BME280;5025;48.890;9.278;2023-02-15T11:31:59;99987.03;;;4.37;78.46
9969;BME280;5025;48.890;9.278;2023-02-15T11:34:31;99987.88;;;4.46;77.60
9969;BME280;5025;48.890;9.278;2023-02-15T11:37:03;99987.53;;;4.41;77.55
9969;BME280;5025;48.890;9.278;2023-02-15T11:39:30;99980.78;;;4.63;77.55
9969;BME280;5025;48.890;9.278;2023-02-15T11:42:00;99981.84;;;4.78;77.22
9969;BME280;5025;48.890;9.278;2023-02-15T11:44:31;99988.56;;;4.91;77.22
9969;BME280;5025;48.890;9.278;2023-02-15T11:46:58;99977.25;;;5.05;nan
9969;BME280;5025;48.890;9.278;2023-02-15T11:49:31;99979.63;;;5.33;76.81
9969;BME280;5025;48.890;9.278;2023-02-15T11:51:58;99988.69;;;5.48;76.25
9969;BME280;5025;48.890;9.278;2023-02-15T11:54:30;99982.19;;;5.75;75.88
9969;BME280;5025;48.890;9.278;2023-02-15T11:57:00;99972.31;;;6.01;75.43
9969;BME280;5025;48.890;9.278;2023-02-15T11:59:32;99974.47;;;6.22;74.93
9969;BME280;5025;48.890;9.278;2023-02-15T12:01:59;99964.88;;;6.36;74.52
9969;BME280;5025;48.890;9.278;2023-02-15T12:04:35;99965.41;;;6.23;73.01
9969;BME280;5025;48.890;9.278;2023-02-15T12:07:09;99968.91;;;6.23;73.15
9969;BME280;5025;48.890;9.278;2023-02-15T12:14:56;99951.44;;;6.36;72.18
9969;BME280;5025;48.890;9.278;2023-02-15T12:17:25;99951.25;;;6.45;71.99
9969;BME280;5025;48.890;9.278;2023-02-15T12:19:52;99949.19;;;6.56;71.79
9969;BME280;5025;48.890;9.278;2023-02-15T12:22:29;99948.28;;;6.72;71.30
9969;BME280;5025;48.890;9.278;2023-02-15T12:24:58;99950.56;;;6.83;71.10
9969;BME280;5025;48.890;9.278;2023-02-15T12:27:27;99942.31;;;6.93;70.87
9969;BME280;5025;48.890;9.278;2023-02-15T12:29:58;99940.66;;;7.15;70.35
9969;BME280;5025;48.890;9.278;2023-02-15T12:32:28;99941.31;;;7.40;70.04
9969;BME280;5025;48.890;9.278;2023-02-15T12:35:01;99941.47;;;7.47;69.60
9969;BME280;5025;48.890;9.278;2023-02-15T12:37:31;99931.63;;;7.54;69.56
9969;BME280;5025;48.890;9.278;2023-02-15T12:40:10;99932.50;;;7.69;69.32
9969;BME280;5025;48.890;9.278;2023-02-15T12:42:44;99923.72;;;7.61;67.90
9969;BME280;5025;48.890;9.278;2023-02-15T12:45:27;99923.84;;;7.82;67.69
9969;BME280;5025;48.890;9.278;2023-02-15T12:50:35;99913.94;;;8.42;66.66
9969;BME280;5025;48.890;9.278;2023-02-15T12:53:14;99905.06;;;8.57;66.45
9969;BME280;5025;48.890;9.278;2023-02-15T12:55:51;99903.44;;;8.77;66.04
9969;BME280;5025;48.890;9.278;2023-02-15T12:58:19;99900.22;;;8.89;65.98
9969;BME280;5025;48.890;9.278;2023-02-15T13:00:46;99895.88;;;8.88;65.10
9969;BME280;5025;48.890;9.278;2023-02-15T13:03:19;99892.38;;;9.09;64.88
9969;BME280;5025;48.890;9.278;2023-02-15T13:05:48;99890.09;;;9.34;64.51
9969;BME280;5025;48.890;9.278;2023-02-15T13:08:20;99886.56;;;9.55;63.77
9969;BME280;5025;48.890;9.278;2023-02-15T13:11:25;99877.47;;;9.84;62.96
9969;BME280;5025;48.890;9.278;2023-02-15T13:13:56;99879.25;;;10.05;62.75
9969;BME280;5025;48.890;9.278;2023-02-15T13:16:32;99869.81;;;10.30;62.08
9969;BME280;5025;48.890;9.278;2023-02-15T13:19:04;99856.25;;;10.51;61.64
9969;BME280;5025;48.890;9.278;2023-02-15T13:21:37;99861.09;;;10.69;61.01
9969;BME280;5025;48.890;9.278;2023-02-15T13:24:07;99847.84;;;10.88;60.66
9969;BME280;5025;48.890;9.278;2023-02-15T13:26:39;99844.78;;;11.11;59.99
9969;BME280;5025;48.890;9.278;2023-02-15T13:29:17;99835.41;;;11.34;59.41
9969;BME280;5025;48.890;9.278;2023-02-15T13:31:45;99839.56;;;11.56;58.69
9969;BME280;5025;48.890;9.278;2023-02-15T13:34:15;99833.75;;;11.73;58.10
9969;BME280;5025;48.890;9.278;2023-02-15T13:48:09;99820.16;;;12.58;54.09
9969;BME280;5025;48.890;9.278;2023-02-15T14:02:05;99797.25;;;13.68;50.28
9969;BME280;5025;48.890;9.278;2023-02-15T14:11:11;99793.19;;;14.33;48.57
9969;BME280;5025;48.890;9.278;2023-02-15T14:16:16;99795.69;;;14.65;47.37
9969;BME280;5025;48.890;9.278;2023-02-15T14:18:57;99793.25;;;14.75;46.80
9969;BME280;5025;48.890;9.278;2023-02-15T14:21:54;99801.19;;;14.88;46.58
9969;BME280;5025;48.890;9.278;2023-02-15T14:24:29;99797.25;;;15.03;46.16
9969;BME280;5025;48.890;9.278;2023-02-15T14:29:51;99788.25;;;15.14;45.11
9969;BME280;5025;48.890;9.278;2023-02-15T14:32:38;99780.38;;;15.24;44.93
9969;BME280;5025;48.890;9.278;2023-02-15T14:35:14;99796.59;;;15.43;44.62
9969;BME280;5025;48.890;9.278;2023-02-15T14:37:42;99791.38;;;15.53;44.25
9969;BME280;5025;48.890;9.278;2023-02-15T14:43:47;99801.44;;;15.65;43.53
9969;BME280;5025;48.890;9.278;2023-02-15T14:48:49;99799.22;;;15.85;43.16
9969;BME280;5025;48.890;9.278;2023-02-15T14:54:08;99793.88;;;16.02;42.85
9969;BME280;5025;48.890;9.278;2023-02-15T14:56:34;99792.06;;;16.08;42.58
9969;BME280;5025;48.890;9.278;2023-02-15T14:59:11;99789.94;;;16.10;42.38
9969;BME280;5025;48.890;9.278;2023-02-15T15:01:39;99795.25;;;16.05;42.31
9969;BME280;5025;48.890;9.278;2023-02-15T15:04:21;99792.91;;;15.97;42.25
9969;BME280;5025;48.890;9.278;2023-02-15T15:07:00;99794.69;;;16.03;42.06
9969;BME280;5025;48.890;9.278;2023-02-15T15:09:28;99789.94;;;15.98;42.05
9969;BME280;5025;48.890;9.278;2023-02-15T15:11:55;99795.06;;;15.94;41.94
9969;BME280;5025;48.890;9.278;2023-02-15T15:14:39;99799.66;;;15.94;41.85
9969;BME280;5025;48.890;9.278;2023-02-15T15:17:06;99798.03;;;15.93;41.91
9969;BME280;5025;48.890;9.278;2023-02-15T15:22:17;99798.59;;;15.83;42.01
9969;BME280;5025;48.890;9.278;2023-02-15T15:27:45;99791.88;;;15.74;41.73
9969;BME280;5025;48.890;9.278;2023-02-15T15:38:15;99781.16;;;15.13;42.86
9969;BME280;5025;48.890;9.278;2023-02-15T15:41:19;99788.00;;;15.04;42.66